createdAt,value
2019-06-01T00:00:25.114Z,7.57
2019-06-01T00:02:55.969Z,7.40
2019-06-01T00:05:19.931Z,6.60
2019-06-01T00:07:47.031Z,7.50
2019-06-01T00:10:13.805Z,7.40
2019-06-01T00:12:41.335Z,7.30
2019-06-01T00:15:09.958Z,8.17
2019-06-01T00:17:36.554Z,8.33
2019-06-01T00:20:05.509Z,7.50
2019-06-01T00:22:32.188Z,7.80
2019-06-01T00:24:58.584Z,8.20
2019-06-01T00:27:25.580Z,8.03
2019-06-01T00:29:54.134Z,8.07
2019-06-01T00:32:20.641Z,7.57
2019-06-01T00:34:47.681Z,7.53
2019-06-01T00:37:14.406Z,7.33
2019-06-01T00:39:41.644Z,7.57
2019-06-01T00:42:08.204Z,7.87
2019-06-01T00:44:34.670Z,7.67
2019-06-01T00:47:01.209Z,7.83
2019-06-01T00:49:27.815Z,8.33
2019-06-01T00:51:54.578Z,8.10
2019-06-01T00:54:21.054Z,7.40
2019-06-01T00:56:47.715Z,9.00
2019-06-01T00:59:14.257Z,7.83
2019-06-01T01:01:40.846Z,8.20
2019-06-01T01:04:10.219Z,7.77
2019-06-01T01:06:36.795Z,8.70
2019-06-01T01:09:06.655Z,9.17
2019-06-01T01:11:33.193Z,9.90
2019-06-01T01:13:59.609Z,9.37
2019-06-01T01:16:26.182Z,9.53
2019-06-01T01:18:53.778Z,9.53
2019-06-01T01:21:20.479Z,8.43
2019-06-01T01:23:48.247Z,9.50
2019-06-01T01:26:14.863Z,8.87
2019-06-01T01:28:41.489Z,9.53
2019-06-01T01:31:13.710Z,9.70
2019-06-01T01:33:36.431Z,9.53
2019-06-01T01:36:04.048Z,10.03
2019-06-01T01:38:30.756Z,9.97
2019-06-01T01:41:00.171Z,9.83
2019-06-01T01:43:26.708Z,10.63
2019-06-01T01:45:53.334Z,10.53
2019-06-01T01:48:21.654Z,9.57
2019-06-01T01:50:48.202Z,10.37
2019-06-01T01:53:14.861Z,10.60
2019-06-01T01:55:41.356Z,11.60
2019-06-01T01:58:09.879Z,11.83
2019-06-01T02:00:39.371Z,12.27
2019-06-01T02:03:06.502Z,12.37
2019-06-01T02:05:33.313Z,11.87
2019-06-01T02:08:00.450Z,11.47
2019-06-01T02:10:28.250Z,12.10
2019-06-01T02:12:55.420Z,12.27
2019-06-01T02:15:22.015Z,13.50
2019-06-01T02:17:48.605Z,13.20
2019-06-01T02:20:15.286Z,14.97
2019-06-01T02:22:41.864Z,15.97
2019-06-01T02:25:08.413Z,15.97
2019-06-01T02:27:34.898Z,15.27
2019-06-01T02:30:03.295Z,14.93
2019-06-01T02:32:30.124Z,15.30
2019-06-01T02:34:58.422Z,15.80
2019-06-01T02:37:24.958Z,16.63
2019-06-01T02:39:51.576Z,14.87
2019-06-01T02:42:18.237Z,15.30
2019-06-01T02:44:44.796Z,14.93
2019-06-01T02:47:11.301Z,13.90
2019-06-01T02:49:40.887Z,15.20
2019-06-01T02:52:07.440Z,14.13
2019-06-01T02:54:34.100Z,14.83
2019-06-01T02:57:06.225Z,14.43
2019-06-01T02:59:33.126Z,13.93
2019-06-01T03:02:06.711Z,14.30
2019-06-01T03:04:28.653Z,15.03
2019-06-01T03:07:03.338Z,14.53
2019-06-01T03:09:29.059Z,18.13
2019-06-01T03:11:55.796Z,15.37
2019-06-01T03:14:25.966Z,15.97
2019-06-01T03:16:53.188Z,15.40
2019-06-01T03:19:21.662Z,15.60
2019-06-01T03:21:48.538Z,15.37
2019-06-01T03:27:02.926Z,16.37
2019-06-01T03:29:34.507Z,16.73
2019-06-01T03:32:19.261Z,16.37
2019-06-01T03:34:29.700Z,16.10
2019-06-01T03:36:56.600Z,16.33
2019-06-01T03:39:23.480Z,16.37
2019-06-01T03:41:50.259Z,16.43
2019-06-01T03:44:16.917Z,18.13
2019-06-01T03:46:43.559Z,17.53
2019-06-01T03:49:10.372Z,16.47
2019-06-01T03:51:38.742Z,17.33
2019-06-01T03:54:06.888Z,16.83
2019-06-01T03:56:33.885Z,17.97
2019-06-01T03:59:01.007Z,18.30
2019-06-01T04:01:27.807Z,17.83
2019-06-01T04:03:54.449Z,15.00
2019-06-01T04:06:21.293Z,14.97
2019-06-01T04:08:47.848Z,15.80
2019-06-01T04:11:14.362Z,15.70
2019-06-01T04:13:43.718Z,15.43
2019-06-01T04:16:10.218Z,14.47
2019-06-01T04:18:36.708Z,12.30
2019-06-01T04:21:04.240Z,11.37
2019-06-01T04:23:30.785Z,9.50
2019-06-01T04:25:57.673Z,9.57
2019-06-01T04:28:24.506Z,8.60
2019-06-01T04:30:51.217Z,7.77
2019-06-01T04:33:17.397Z,7.37
2019-06-01T04:35:43.559Z,6.60
2019-06-01T04:38:13.315Z,6.77
2019-06-01T04:40:39.636Z,7.40
2019-06-01T04:43:05.796Z,7.97
2019-06-01T04:45:32.712Z,8.43
2019-06-01T04:47:58.939Z,7.63
2019-06-01T04:50:25.162Z,7.77
2019-06-01T04:52:51.525Z,9.10
2019-06-01T04:55:17.824Z,9.53
2019-06-01T04:57:47.383Z,9.20
2019-06-01T05:00:26.877Z,8.67
2019-06-01T05:02:43.776Z,9.47
2019-06-01T05:05:11.288Z,8.80
2019-06-01T05:07:38.259Z,8.10
2019-06-01T05:10:07.292Z,8.83
2019-06-01T05:12:34.154Z,8.07
2019-06-01T05:15:00.329Z,6.90
2019-06-01T05:17:26.975Z,6.87
2019-06-01T05:19:53.660Z,7.40
2019-06-01T05:22:20.358Z,6.63
2019-06-01T05:24:47.073Z,6.10
2019-06-01T05:27:13.551Z,6.83
2019-06-01T05:29:41.819Z,5.33
2019-06-01T05:32:08.561Z,6.00
2019-06-01T05:34:35.407Z,6.60
2019-06-01T05:37:02.116Z,6.17
2019-06-01T05:39:28.634Z,5.93
2019-06-01T05:41:55.549Z,6.77
2019-06-01T05:44:25.054Z,7.57
2019-06-01T05:46:51.703Z,7.23
2019-06-01T05:49:18.639Z,6.80
2019-06-01T05:51:45.557Z,6.20
2019-06-01T05:54:12.529Z,6.53
2019-06-01T05:56:42.021Z,6.50
2019-06-01T05:59:09.798Z,6.50
2019-06-01T06:01:36.905Z,7.43
2019-06-01T06:04:03.950Z,7.23
2019-06-01T06:06:30.626Z,6.83
2019-06-01T06:08:57.344Z,6.70
2019-06-01T06:11:24.110Z,6.00
2019-06-01T06:13:50.762Z,7.20
2019-06-01T06:16:17.921Z,8.03
2019-06-01T06:18:44.512Z,6.93
2019-06-01T06:21:11.897Z,6.70
2019-06-01T06:23:38.264Z,6.60
2019-06-01T06:26:04.438Z,7.00
2019-06-01T06:28:30.641Z,8.43
2019-06-01T06:30:56.898Z,7.27
2019-06-01T06:33:23.674Z,6.30
2019-06-01T06:35:49.923Z,5.87
2019-06-01T06:38:16.140Z,6.30
2019-06-01T06:40:42.275Z,6.77
2019-06-01T06:43:19.100Z,6.87
2019-06-01T06:45:36.627Z,7.63
2019-06-01T06:48:02.920Z,6.70
2019-06-01T06:50:29.112Z,6.50
2019-06-01T06:52:55.251Z,6.27
2019-06-01T06:55:21.997Z,4.80
2019-06-01T06:57:48.284Z,4.47
2019-06-01T07:00:14.610Z,3.60
2019-06-01T07:02:40.758Z,3.70
2019-06-01T07:05:07.053Z,4.40
2019-06-01T07:07:33.426Z,3.90
2019-06-01T07:09:59.654Z,4.23
2019-06-01T07:12:25.821Z,3.67
2019-06-01T07:14:52.059Z,3.90
2019-06-01T07:17:19.398Z,3.83
2019-06-01T07:19:45.803Z,4.43
2019-06-01T07:22:12.025Z,4.30
2019-06-01T07:24:43.134Z,4.83
2019-06-01T07:27:09.337Z,3.77
2019-06-01T07:29:35.778Z,3.70
2019-06-01T07:32:01.976Z,4.57
2019-06-01T07:34:37.818Z,3.30
2019-06-01T07:36:56.392Z,3.67
2019-06-01T07:39:22.723Z,4.00
2019-06-01T07:41:48.924Z,4.27
2019-06-01T07:44:15.199Z,3.73
2019-06-01T07:46:41.339Z,4.13
2019-06-01T07:49:07.537Z,4.20
2019-06-01T07:51:33.693Z,4.60
2019-06-01T07:53:59.799Z,5.27
2019-06-01T07:56:28.682Z,4.40
2019-06-01T07:58:54.944Z,3.87
2019-06-01T08:01:22.780Z,3.17
2019-06-01T08:03:49.214Z,3.67
2019-06-01T08:06:18.553Z,3.30
2019-06-01T08:08:45.312Z,4.10
2019-06-01T08:11:11.797Z,4.47
2019-06-01T08:13:41.057Z,3.77
2019-06-01T08:16:07.659Z,3.77
2019-06-01T08:18:34.270Z,2.90
2019-06-01T08:21:00.942Z,3.93
2019-06-01T08:23:30.283Z,3.97
2019-06-01T08:25:57.989Z,3.00
2019-06-01T08:28:24.754Z,3.47
2019-06-01T08:30:51.038Z,3.60
2019-06-01T08:33:17.160Z,3.33
2019-06-01T08:35:43.403Z,3.40
2019-06-01T08:38:10.270Z,3.90
2019-06-01T08:40:36.974Z,2.87
2019-06-01T08:43:03.865Z,2.83
2019-06-01T08:45:37.237Z,3.10
2019-06-01T08:48:06.043Z,2.90
2019-06-01T08:50:32.310Z,3.10
2019-06-01T08:53:00.371Z,3.00
2019-06-01T08:55:28.054Z,3.07
2019-06-01T08:57:55.062Z,2.90
2019-06-01T09:00:21.916Z,3.43
2019-06-01T09:02:58.569Z,2.40
2019-06-01T09:05:26.831Z,2.70
2019-06-01T09:07:53.441Z,2.23
2019-06-01T09:10:19.789Z,2.40
2019-06-01T09:12:48.654Z,3.20
2019-06-01T09:15:15.858Z,3.20
2019-06-01T09:17:42.303Z,3.30
2019-06-01T09:20:09.234Z,3.00
2019-06-01T09:22:35.957Z,2.93
2019-06-01T09:25:03.314Z,2.93
2019-06-01T09:27:30.164Z,2.50
2019-06-01T09:29:56.922Z,3.17
2019-06-01T09:32:23.701Z,3.20
2019-06-01T09:34:50.198Z,3.20
2019-06-01T09:37:17.233Z,3.50
2019-06-01T09:39:43.904Z,3.20
2019-06-01T09:42:10.463Z,3.33
2019-06-01T09:44:39.521Z,3.40
2019-06-01T09:47:06.099Z,3.20
2019-06-01T09:49:34.076Z,3.77
2019-06-01T09:52:00.849Z,3.17
2019-06-01T09:54:29.444Z,2.87
2019-06-01T09:56:56.377Z,2.83
2019-06-01T09:59:22.866Z,3.37
2019-06-01T10:01:49.485Z,2.87
2019-06-01T10:04:16.349Z,2.97
2019-06-01T10:06:42.607Z,3.40
2019-06-01T10:09:09.430Z,3.30
2019-06-01T10:11:36.070Z,3.27
2019-06-01T10:14:03.545Z,3.10
2019-06-01T10:16:30.520Z,2.93
2019-06-01T10:18:57.104Z,3.30
2019-06-01T10:21:26.405Z,3.60
2019-06-01T10:23:53.121Z,3.40
2019-06-01T10:26:22.158Z,4.87
2019-06-01T10:28:48.944Z,3.47
2019-06-01T10:31:15.647Z,3.90
2019-06-01T10:33:43.500Z,3.80
2019-06-01T10:36:20.786Z,4.23
2019-06-01T10:38:39.384Z,3.43
2019-06-01T10:41:06.056Z,3.27
2019-06-01T10:43:33.673Z,3.50
2019-06-01T10:46:00.311Z,2.63
2019-06-01T10:48:27.106Z,3.20
2019-06-01T10:50:53.817Z,3.00
2019-06-01T10:53:20.367Z,2.93
2019-06-01T10:55:46.894Z,2.90
2019-06-01T10:58:14.045Z,2.90
2019-06-01T11:00:47.780Z,2.27
2019-06-01T11:03:14.898Z,2.60
2019-06-01T11:05:41.229Z,2.70
2019-06-01T11:08:07.893Z,2.50
2019-06-01T11:10:34.820Z,2.47
2019-06-01T11:13:01.638Z,2.70
2019-06-01T11:15:28.534Z,3.20
2019-06-01T11:17:55.134Z,2.27
2019-06-01T11:20:21.602Z,2.20
2019-06-01T11:22:47.827Z,2.50
2019-06-01T11:25:14.248Z,2.93
2019-06-01T11:27:41.766Z,2.43
2019-06-01T11:30:08.720Z,2.07
2019-06-01T11:32:35.914Z,2.60
2019-06-01T11:35:04.782Z,2.30
2019-06-01T11:37:30.913Z,2.30
2019-06-01T11:39:57.141Z,2.63
2019-06-01T11:42:23.366Z,2.80
2019-06-01T11:44:49.485Z,2.40
2019-06-01T11:47:15.735Z,2.90
2019-06-01T11:49:42.860Z,3.10
2019-06-01T11:52:09.806Z,2.90
2019-06-01T11:54:37.040Z,2.33
2019-06-01T11:57:03.645Z,2.53
2019-06-01T11:59:30.353Z,2.40
2019-06-01T12:01:56.925Z,3.03
2019-06-01T12:04:23.703Z,2.43
2019-06-01T12:06:50.416Z,2.60
2019-06-01T12:09:17.238Z,2.50
2019-06-01T12:11:46.386Z,3.40
2019-06-01T12:14:12.570Z,2.50
2019-06-01T12:16:40.143Z,2.60
2019-06-01T12:19:06.813Z,2.80
2019-06-01T12:21:33.695Z,2.57
2019-06-01T12:23:59.921Z,3.00
2019-06-01T12:26:26.143Z,2.80
2019-06-01T12:28:52.303Z,2.10
2019-06-01T12:31:18.578Z,2.67
2019-06-01T12:33:46.257Z,2.60
2019-06-01T12:36:12.632Z,2.93
2019-06-01T12:38:51.341Z,2.90
2019-06-01T12:41:18.550Z,2.67
2019-06-01T12:43:47.711Z,2.63
2019-06-01T12:46:14.054Z,2.70
2019-06-01T12:48:40.261Z,2.93
2019-06-01T12:51:06.365Z,2.43
2019-06-01T12:53:36.634Z,2.70
2019-06-01T12:56:02.993Z,2.53
2019-06-01T12:58:29.216Z,2.13
2019-06-01T13:00:55.475Z,3.40
2019-06-01T13:03:21.704Z,2.90
2019-06-01T13:05:47.926Z,3.20
2019-06-01T13:08:14.173Z,2.63
2019-06-01T13:10:41.027Z,2.87
2019-06-01T13:13:07.295Z,2.93
2019-06-01T13:15:33.587Z,2.70
2019-06-01T13:17:59.786Z,2.90
2019-06-01T13:20:26.058Z,2.93
2019-06-01T13:22:52.250Z,3.50
2019-06-01T13:25:18.594Z,3.10
2019-06-01T13:27:46.329Z,2.70
2019-06-01T13:30:13.031Z,2.80
2019-06-01T13:32:39.239Z,3.20
2019-06-01T13:35:05.566Z,2.73
2019-06-01T13:37:31.804Z,2.90
2019-06-01T13:39:58.467Z,2.40
2019-06-01T13:42:26.606Z,3.03
2019-06-01T13:44:55.144Z,3.23
2019-06-01T13:47:21.575Z,2.80
2019-06-01T13:49:50.129Z,3.13
2019-06-01T13:52:16.735Z,2.97
2019-06-01T13:54:44.077Z,2.90
2019-06-01T13:57:10.286Z,3.43
2019-06-01T13:59:36.516Z,3.20
2019-06-01T14:02:02.858Z,3.07
2019-06-01T14:04:29.172Z,2.60
2019-06-01T14:06:55.540Z,3.27
2019-06-01T14:09:22.293Z,3.07
2019-06-01T14:11:49.290Z,3.17
2019-06-01T14:14:15.465Z,3.37
2019-06-01T14:16:41.575Z,2.97
2019-06-01T14:19:07.812Z,3.22
2019-06-01T14:21:34.086Z,2.83
2019-06-01T14:24:00.429Z,3.60
2019-06-01T14:26:26.734Z,2.97
2019-06-01T14:28:53.998Z,3.33
2019-06-01T14:31:20.401Z,2.77
2019-06-01T14:33:46.606Z,3.33
2019-06-01T14:36:12.870Z,2.90
2019-06-01T14:38:46.881Z,2.90
2019-06-01T14:41:07.151Z,3.20
2019-06-01T14:43:33.306Z,3.27
2019-06-01T14:45:59.558Z,3.43
2019-06-01T14:48:25.920Z,3.50
2019-06-01T14:50:53.673Z,3.20
2019-06-01T14:53:20.162Z,3.70
2019-06-01T14:55:47.552Z,4.07
2019-06-01T14:58:14.121Z,3.43
2019-06-01T15:00:40.322Z,3.37
2019-06-01T15:03:06.562Z,3.37
2019-06-01T15:05:32.798Z,4.00
2019-06-01T15:07:59.297Z,4.20
2019-06-01T15:10:25.636Z,4.60
2019-06-01T15:12:56.541Z,3.50
2019-06-01T15:15:20.192Z,5.03
2019-06-01T15:17:46.653Z,4.10
2019-06-01T15:20:13.402Z,4.93
2019-06-01T15:22:39.614Z,4.83
2019-06-01T15:25:07.007Z,4.20
2019-06-01T15:27:33.367Z,4.07
2019-06-01T15:29:59.688Z,4.47
2019-06-01T15:32:26.748Z,6.03
2019-06-01T15:34:54.452Z,5.17
2019-06-01T15:37:20.742Z,4.80
2019-06-01T15:39:47.049Z,6.50
2019-06-01T15:42:13.201Z,7.60
2019-06-01T15:44:39.537Z,6.30
2019-06-01T15:47:05.806Z,5.70
2019-06-01T15:49:32.046Z,6.80
2019-06-01T15:51:58.256Z,6.13
2019-06-01T15:54:25.568Z,6.97
2019-06-01T15:56:52.186Z,6.43
2019-06-01T15:59:18.410Z,7.03
2019-06-01T16:01:44.619Z,6.57
2019-06-01T16:04:10.776Z,6.13
2019-06-01T16:06:36.915Z,6.27
2019-06-01T16:09:05.043Z,8.50
2019-06-01T16:11:31.258Z,6.97
2019-06-01T16:13:57.665Z,8.23
2019-06-01T16:16:23.908Z,7.33
2019-06-01T16:18:50.200Z,6.90
2019-06-01T16:21:16.333Z,6.63
2019-06-01T16:23:49.799Z,6.63
2019-06-01T16:26:16.078Z,6.00
2019-06-01T16:28:38.505Z,6.00
2019-06-01T16:31:04.888Z,5.00
2019-06-01T16:33:31.073Z,4.80
2019-06-01T16:35:57.181Z,5.30
2019-06-01T16:38:23.319Z,5.63
2019-06-01T16:40:49.482Z,5.50
2019-06-01T16:43:15.705Z,4.60
2019-06-01T16:45:41.935Z,4.90
2019-06-01T16:48:08.306Z,5.00
2019-06-01T16:53:13.912Z,4.93
2019-06-01T16:55:40.096Z,5.70
2019-06-01T16:58:06.748Z,5.00
2019-06-01T17:00:33.058Z,5.20
2019-06-01T17:03:00.504Z,5.63
2019-06-01T17:05:26.805Z,5.80
2019-06-01T17:07:53.030Z,6.43
2019-06-01T17:10:26.059Z,6.70
2019-06-01T17:12:47.345Z,6.50
2019-06-01T17:15:14.899Z,8.00
2019-06-01T17:17:41.103Z,6.30
2019-06-01T17:20:42.762Z,6.50
2019-06-01T17:23:24.466Z,5.00
2019-06-01T17:25:37.377Z,7.27
2019-06-01T17:28:05.209Z,13.37
2019-06-01T17:30:31.651Z,28.97
2019-06-01T17:32:58.228Z,19.37
2019-06-01T17:35:24.417Z,7.40
2019-06-01T17:37:51.090Z,6.20
2019-06-01T17:40:17.511Z,6.57
2019-06-01T17:42:43.783Z,5.20
2019-06-01T17:45:10.409Z,4.93
2019-06-01T17:47:40.799Z,5.20
2019-06-01T17:50:05.571Z,5.87
2019-06-01T17:52:31.860Z,5.90
2019-06-01T17:54:58.199Z,5.93
2019-06-01T17:57:24.455Z,5.90
2019-06-01T17:59:51.711Z,5.93
2019-06-01T18:02:17.837Z,5.60
2019-06-01T18:04:44.214Z,4.93
2019-06-01T18:07:13.361Z,4.20
2019-06-01T18:09:39.696Z,6.93
2019-06-01T18:12:06.124Z,11.97
2019-06-01T18:14:32.490Z,7.97
2019-06-01T18:16:59.005Z,6.30
2019-06-01T18:19:25.268Z,9.00
2019-06-01T18:21:51.595Z,11.93
2019-06-01T18:24:17.803Z,8.03
2019-06-01T18:26:43.991Z,9.03
2019-06-01T18:29:10.727Z,12.50
2019-06-01T18:31:37.245Z,13.97
2019-06-01T18:34:03.679Z,13.50
2019-06-01T18:36:30.085Z,12.47
2019-06-01T18:38:56.263Z,8.87
2019-06-01T18:41:22.594Z,8.90
2019-06-01T18:43:48.718Z,8.20
2019-06-01T18:46:15.143Z,10.67
2019-06-01T18:48:41.828Z,10.50
2019-06-01T18:51:08.237Z,8.77
2019-06-01T18:53:34.628Z,10.27
2019-06-01T18:56:00.801Z,10.47
2019-06-01T18:58:27.115Z,10.50
2019-06-01T19:00:53.355Z,9.13
2019-06-01T19:03:19.825Z,10.50
2019-06-01T19:05:46.103Z,9.67
2019-06-01T19:08:13.669Z,10.67
2019-06-01T19:10:40.981Z,9.63
2019-06-01T19:13:07.774Z,8.73
2019-06-01T19:15:34.487Z,8.87
2019-06-01T19:18:01.190Z,8.83
2019-06-01T19:20:27.800Z,9.07
2019-06-01T19:22:54.416Z,11.60
2019-06-01T19:25:21.203Z,9.37
2019-06-01T19:27:47.567Z,7.87
2019-06-01T19:30:20.887Z,7.40
2019-06-01T19:32:47.453Z,6.70
2019-06-01T19:35:15.300Z,5.93
2019-06-01T19:37:42.064Z,7.37
2019-06-01T19:40:09.538Z,6.53
2019-06-01T19:42:36.078Z,6.43
2019-06-01T19:45:05.166Z,5.40
2019-06-01T19:47:31.397Z,5.43
2019-06-01T19:49:58.248Z,5.87
2019-06-01T19:52:25.306Z,7.60
2019-06-01T19:54:52.534Z,7.17
2019-06-01T19:57:22.022Z,7.07
2019-06-01T19:59:47.477Z,6.77
2019-06-01T20:02:26.196Z,6.43
2019-06-01T20:04:42.607Z,6.17
2019-06-01T20:07:09.081Z,6.83
2019-06-01T20:09:36.884Z,6.80
2019-06-01T20:12:11.314Z,5.97
2019-06-01T20:14:31.584Z,6.60
2019-06-01T20:16:57.926Z,5.80
2019-06-01T20:19:24.752Z,6.80
2019-06-01T20:21:51.972Z,5.90
2019-06-01T20:24:19.470Z,5.50
2019-06-01T20:26:49.201Z,5.60
2019-06-01T20:29:15.662Z,5.20
2019-06-01T20:31:43.553Z,4.90
2019-06-01T20:34:12.787Z,4.10
2019-06-01T20:36:41.340Z,4.47
2019-06-01T20:39:08.608Z,4.43
2019-06-01T20:41:35.934Z,5.00
2019-06-01T20:44:03.404Z,5.07
2019-06-01T20:46:30.640Z,5.00
2019-06-01T20:48:58.044Z,5.10
2019-06-01T20:51:27.827Z,5.00
2019-06-01T20:53:54.537Z,4.33
2019-06-01T20:56:23.538Z,4.77
2019-06-01T20:58:51.041Z,5.80
2019-06-01T21:01:19.671Z,6.20
2019-06-01T21:03:47.061Z,6.30
2019-06-01T21:06:15.815Z,5.40
2019-06-01T21:08:43.658Z,6.77
2019-06-01T21:11:11.388Z,6.10
2019-06-01T21:13:38.898Z,6.30
2019-06-01T21:16:06.415Z,7.13
2019-06-01T21:18:34.035Z,6.57
2019-06-01T21:21:04.691Z,6.93
2019-06-01T21:23:34.746Z,7.07
2019-06-01T21:26:03.605Z,8.93
2019-06-01T21:28:31.287Z,7.40
2019-06-01T21:31:04.258Z,7.80
2019-06-01T21:33:31.747Z,7.57
2019-06-01T21:35:59.508Z,8.33
2019-06-01T21:38:26.934Z,8.20
2019-06-01T21:40:54.462Z,8.50
2019-06-01T21:43:29.291Z,7.80
2019-06-01T21:45:51.088Z,7.40
2019-06-01T21:48:22.008Z,7.43
2019-06-01T21:50:52.482Z,7.90
2019-06-01T21:53:20.096Z,7.43
2019-06-01T21:55:47.193Z,8.50
2019-06-01T21:58:14.752Z,9.37
2019-06-01T22:00:41.922Z,7.67
2019-06-01T22:03:12.188Z,8.27
2019-06-01T22:05:39.567Z,8.23
2019-06-01T22:08:10.348Z,8.50
2019-06-01T22:10:37.799Z,8.20
2019-06-01T22:13:18.094Z,7.83
2019-06-01T22:15:34.882Z,7.83
2019-06-01T22:18:02.218Z,7.27
2019-06-01T22:20:29.579Z,7.10
2019-06-01T22:22:57.097Z,8.20
2019-06-01T22:25:23.984Z,7.60
2019-06-01T22:27:51.642Z,8.50
2019-06-01T22:30:18.768Z,7.73
2019-06-01T22:32:46.423Z,7.73
2019-06-01T22:35:16.676Z,8.00
2019-06-01T22:37:46.909Z,8.93
2019-06-01T22:40:14.556Z,9.03
2019-06-01T22:42:40.853Z,8.93
2019-06-01T22:45:07.570Z,8.10
2019-06-01T22:47:34.808Z,8.20
2019-06-01T22:50:02.111Z,7.83
2019-06-01T22:52:31.610Z,7.40
2019-06-01T22:55:01.728Z,9.17
2019-06-01T22:57:29.720Z,9.83
2019-06-01T22:59:57.364Z,8.97
2019-06-01T23:02:25.701Z,8.53
2019-06-01T23:04:51.976Z,8.93
2019-06-01T23:07:18.162Z,10.20
2019-06-01T23:09:44.360Z,10.43
2019-06-01T23:12:10.473Z,9.87
2019-06-01T23:14:36.610Z,10.30
2019-06-01T23:17:03.120Z,10.73
2019-06-01T23:19:29.982Z,11.47
2019-06-01T23:21:56.280Z,12.03
2019-06-01T23:24:22.483Z,11.43
2019-06-01T23:26:48.587Z,11.20
2019-06-01T23:29:14.715Z,11.67
2019-06-01T23:34:11.639Z,12.33
2019-06-01T23:36:37.970Z,12.13
2019-06-01T23:39:06.388Z,11.97
2019-06-01T23:41:32.947Z,11.30
2019-06-01T23:44:10.949Z,13.20
2019-06-01T23:46:27.285Z,12.13
2019-06-01T23:48:53.413Z,13.93
2019-06-01T23:51:19.556Z,13.80
2019-06-01T23:53:45.674Z,12.60
2019-06-01T23:56:11.866Z,13.43
2019-06-01T23:58:38.169Z,13.47
